createdAt,value
2022-09-06T00:01:10.931Z,3.80
2022-09-06T00:03:38.654Z,3.80
2022-09-06T00:06:11.162Z,3.78
2022-09-06T00:08:40.542Z,3.60
2022-09-06T00:11:08.500Z,3.60
2022-09-06T00:13:36.548Z,3.80
2022-09-06T00:16:08.959Z,3.90
2022-09-06T00:18:37.138Z,3.95
2022-09-06T00:21:05.140Z,3.40
2022-09-06T00:23:33.106Z,3.85
2022-09-06T00:26:06.235Z,3.70
2022-09-06T00:28:33.894Z,3.60
2022-09-06T00:31:09.527Z,3.42
2022-09-06T00:33:37.383Z,3.80
2022-09-06T00:36:05.492Z,3.60
2022-09-06T00:38:33.517Z,3.78
2022-09-06T00:41:01.178Z,3.65
2022-09-06T00:43:30.373Z,3.60
2022-09-06T00:45:58.558Z,3.70
2022-09-06T00:48:26.649Z,3.53
2022-09-06T00:50:56.779Z,3.60
2022-09-06T00:53:25.031Z,3.67
2022-09-06T00:55:53.016Z,3.97
2022-09-06T00:58:20.888Z,3.67
2022-09-06T01:00:50.214Z,3.88
2022-09-06T01:03:19.084Z,3.75
2022-09-06T01:05:54.692Z,3.90
2022-09-06T01:08:31.641Z,3.65
2022-09-06T01:11:08.644Z,3.83
2022-09-06T01:13:46.381Z,3.80
2022-09-06T01:16:22.604Z,3.78
2022-09-06T01:19:00.993Z,3.60
2022-09-06T01:21:40.781Z,3.63
2022-09-06T01:24:33.788Z,3.70
2022-09-06T01:27:35.569Z,3.80
2022-09-06T01:30:09.301Z,3.88
2022-09-06T01:32:43.573Z,3.58
2022-09-06T01:35:17.029Z,3.47
2022-09-06T01:37:44.808Z,3.70
2022-09-06T01:40:12.660Z,3.85
2022-09-06T01:42:41.569Z,3.80
2022-09-06T01:45:13.814Z,3.45
2022-09-06T01:50:24.477Z,3.15
2022-09-06T01:52:59.788Z,3.53
2022-09-06T01:55:32.200Z,3.70
2022-09-06T01:58:16.043Z,3.90
2022-09-06T02:00:49.130Z,3.60
2022-09-06T02:03:21.496Z,3.50
2022-09-06T02:05:52.459Z,3.60
2022-09-06T02:08:25.423Z,3.50
2022-09-06T02:10:56.771Z,3.78
2022-09-06T02:13:25.498Z,3.90
2022-09-06T02:15:57.884Z,3.47
2022-09-06T02:18:29.800Z,3.40
2022-09-06T02:20:59.368Z,3.90
2022-09-06T02:23:31.030Z,3.90
2022-09-06T02:26:00.896Z,3.92
2022-09-06T02:28:29.036Z,3.78
2022-09-06T02:31:07.971Z,3.60
2022-09-06T02:33:36.459Z,3.50
2022-09-06T02:36:06.875Z,3.60
2022-09-06T02:38:35.692Z,3.50
2022-09-06T02:41:04.562Z,3.70
2022-09-06T02:43:32.260Z,3.63
2022-09-06T02:45:59.999Z,3.70
2022-09-06T02:48:29.149Z,3.60
2022-09-06T02:50:56.808Z,3.72
2022-09-06T02:53:24.472Z,3.80
2022-09-06T02:55:52.210Z,3.70
2022-09-06T02:58:19.929Z,3.60
2022-09-06T03:00:47.934Z,3.80
2022-09-06T03:03:16.202Z,3.50
2022-09-06T03:05:47.982Z,3.80
2022-09-06T03:08:15.641Z,3.58
2022-09-06T03:10:49.664Z,3.90
2022-09-06T03:13:17.458Z,3.88
2022-09-06T03:15:45.147Z,3.90
2022-09-06T03:18:13.315Z,3.70
2022-09-06T03:20:41.278Z,3.67
2022-09-06T03:23:11.057Z,3.50
2022-09-06T03:25:38.825Z,3.65
2022-09-06T03:28:06.567Z,3.83
2022-09-06T03:30:34.276Z,3.80
2022-09-06T03:33:03.085Z,3.60
2022-09-06T03:35:30.822Z,3.80
2022-09-06T03:37:58.518Z,3.90
2022-09-06T03:40:27.717Z,3.90
2022-09-06T03:42:55.418Z,3.80
2022-09-06T03:45:23.110Z,3.45
2022-09-06T03:47:50.850Z,3.60
2022-09-06T03:50:18.588Z,3.70
2022-09-06T03:52:46.298Z,3.60
2022-09-06T03:55:14.051Z,3.72
2022-09-06T03:57:43.297Z,3.90
2022-09-06T04:00:12.118Z,3.90
2022-09-06T04:02:39.996Z,3.40
2022-09-06T04:05:08.322Z,4.00
2022-09-06T04:07:37.924Z,3.90
2022-09-06T04:10:07.542Z,3.70
2022-09-06T04:12:35.407Z,3.72
2022-09-06T04:15:04.800Z,3.40
2022-09-06T04:17:32.602Z,3.78
2022-09-06T04:20:00.327Z,3.50
2022-09-06T04:22:28.002Z,3.95
2022-09-06T04:24:55.682Z,3.70
2022-09-06T04:27:23.714Z,3.92
2022-09-06T04:29:51.525Z,3.72
2022-09-06T04:32:20.586Z,3.70
2022-09-06T04:34:48.252Z,3.63
2022-09-06T04:37:19.982Z,3.88
2022-09-06T04:39:47.975Z,3.88
2022-09-06T04:42:15.991Z,3.90
2022-09-06T04:44:43.930Z,3.50
2022-09-06T04:47:15.363Z,3.55
2022-09-06T04:49:44.435Z,4.00
2022-09-06T04:52:12.287Z,4.00
2022-09-06T04:54:40.122Z,3.63
2022-09-06T04:57:07.998Z,3.60
2022-09-06T04:59:35.715Z,3.72
2022-09-06T05:02:03.619Z,3.50
2022-09-06T05:04:31.395Z,3.50
2022-09-06T05:07:04.723Z,3.80
2022-09-06T05:09:32.547Z,3.53
2022-09-06T05:12:00.978Z,3.78
2022-09-06T05:14:29.506Z,3.70
2022-09-06T05:16:57.291Z,3.80
2022-09-06T05:19:25.061Z,3.60
2022-09-06T05:21:53.352Z,3.88
2022-09-06T05:24:22.370Z,3.47
2022-09-06T05:26:50.312Z,3.92
2022-09-06T05:29:18.043Z,3.65
2022-09-06T05:31:45.793Z,3.80
2022-09-06T05:34:15.029Z,3.53
2022-09-06T05:36:42.894Z,3.40
2022-09-06T05:39:10.529Z,3.83
2022-09-06T05:41:39.587Z,3.80
2022-09-06T05:44:07.355Z,3.75
2022-09-06T05:46:34.991Z,3.83
2022-09-06T05:49:07.818Z,3.75
2022-09-06T05:51:35.503Z,3.78
2022-09-06T05:54:03.179Z,4.00
2022-09-06T05:56:30.918Z,4.10
2022-09-06T05:58:59.890Z,4.20
2022-09-06T06:01:29.387Z,3.80
2022-09-06T06:03:59.004Z,4.00
2022-09-06T06:06:28.474Z,3.72
2022-09-06T06:08:56.588Z,3.80
2022-09-06T06:11:26.000Z,3.70
2022-09-06T06:13:55.268Z,3.60
2022-09-06T06:16:25.403Z,3.80
2022-09-06T06:18:53.303Z,3.70
2022-09-06T06:21:22.577Z,4.18
2022-09-06T06:23:52.890Z,3.88
2022-09-06T06:26:21.107Z,3.90
2022-09-06T06:28:49.764Z,3.88
2022-09-06T06:31:17.587Z,3.30
2022-09-06T06:33:46.768Z,3.33
2022-09-06T06:36:22.562Z,3.80
2022-09-06T06:38:51.852Z,3.20
2022-09-06T06:41:21.444Z,3.03
2022-09-06T06:43:49.173Z,3.35
2022-09-06T06:46:19.063Z,3.63
2022-09-06T06:48:51.563Z,3.47
2022-09-06T06:51:23.807Z,3.65
2022-09-06T06:53:51.695Z,3.65
2022-09-06T06:56:20.979Z,3.97
2022-09-06T06:58:50.180Z,3.83
2022-09-06T07:01:18.677Z,3.58
2022-09-06T07:03:48.089Z,3.90
2022-09-06T07:06:16.700Z,3.80
2022-09-06T07:08:47.656Z,4.10
2022-09-06T07:11:17.820Z,4.07
2022-09-06T07:13:46.617Z,4.15
2022-09-06T07:16:16.385Z,4.07
2022-09-06T07:18:45.895Z,4.38
2022-09-06T07:24:06.358Z,4.13
2022-09-06T07:26:36.229Z,5.15
2022-09-06T07:29:05.578Z,4.85
2022-09-06T07:34:22.112Z,4.90
2022-09-06T07:36:53.109Z,5.07
2022-09-06T07:39:23.150Z,4.90
2022-09-06T07:41:50.981Z,5.55
2022-09-06T07:44:18.629Z,4.53
2022-09-06T07:46:46.413Z,4.40
2022-09-06T07:49:14.222Z,4.55
2022-09-06T07:51:41.962Z,4.50
2022-09-06T07:54:29.918Z,4.50
2022-09-06T07:56:58.700Z,4.50
2022-09-06T07:59:27.485Z,4.60
2022-09-06T08:01:55.208Z,4.53
2022-09-06T08:04:22.987Z,4.38
2022-09-06T08:09:41.300Z,4.50
2022-09-06T08:12:09.604Z,4.85
2022-09-06T08:14:37.369Z,4.95
2022-09-06T08:17:05.572Z,4.60
2022-09-06T08:19:36.588Z,4.50
2022-09-06T08:22:04.542Z,4.40
2022-09-06T08:24:35.896Z,4.45
2022-09-06T08:27:07.791Z,3.58
2022-09-06T08:32:03.824Z,4.20
2022-09-06T08:34:31.563Z,5.15
2022-09-06T08:36:59.207Z,4.32
2022-09-06T08:39:27.742Z,4.13
2022-09-06T08:41:57.834Z,4.60
2022-09-06T08:47:18.246Z,4.63
2022-09-06T08:49:47.393Z,4.68
2022-09-06T08:52:28.354Z,4.38
2022-09-06T08:55:05.047Z,4.50
2022-09-06T08:57:45.818Z,4.40
2022-09-06T09:00:16.320Z,4.40
2022-09-06T09:02:45.918Z,3.88
2022-09-06T09:05:24.451Z,4.00
2022-09-06T09:08:01.005Z,4.55
2022-09-06T09:10:30.661Z,4.25
2022-09-06T09:12:58.747Z,4.40
2022-09-06T09:15:28.810Z,3.92
2022-09-06T09:17:56.872Z,4.80
2022-09-06T09:20:24.786Z,4.38
2022-09-06T09:22:52.447Z,4.40
2022-09-06T09:25:23.283Z,4.80
2022-09-06T09:27:57.853Z,4.27
2022-09-06T09:33:28.457Z,4.55
2022-09-06T09:35:57.164Z,4.50
2022-09-06T09:38:27.627Z,5.13
2022-09-06T09:40:57.468Z,5.18
2022-09-06T09:43:26.612Z,5.18
2022-09-06T09:46:16.835Z,4.82
2022-09-06T09:48:49.663Z,4.80
2022-09-06T09:51:26.342Z,4.70
2022-09-06T09:53:56.491Z,4.95
2022-09-06T09:56:30.434Z,4.80
2022-09-06T09:58:59.222Z,4.47
2022-09-06T10:01:33.750Z,4.88
2022-09-06T10:07:08.141Z,4.90
2022-09-06T10:09:38.086Z,4.90
2022-09-06T10:12:06.458Z,4.93
2022-09-06T10:14:41.265Z,5.10
2022-09-06T10:17:19.670Z,4.70
2022-09-06T10:19:48.756Z,5.00
2022-09-06T10:22:28.414Z,4.90
2022-09-06T10:25:26.571Z,4.75
2022-09-06T10:28:23.895Z,5.00
2022-09-06T10:31:17.115Z,4.85
2022-09-06T10:33:57.530Z,4.80
2022-09-06T10:36:30.025Z,5.20
2022-09-06T10:39:03.643Z,5.05
2022-09-06T10:41:49.439Z,4.80
2022-09-06T10:44:27.841Z,5.15
2022-09-06T10:47:01.107Z,5.22
2022-09-06T10:49:30.247Z,5.30
2022-09-06T10:51:59.622Z,5.15
2022-09-06T10:54:27.396Z,5.60
2022-09-06T10:56:58.780Z,5.28
2022-09-06T10:59:36.265Z,6.03
2022-09-06T11:02:14.180Z,5.70
2022-09-06T11:07:35.287Z,5.53
2022-09-06T11:10:10.050Z,4.95
2022-09-06T11:12:41.298Z,5.28
2022-09-06T11:15:13.610Z,5.45
2022-09-06T11:17:46.760Z,5.50
2022-09-06T11:20:20.099Z,5.35
2022-09-06T11:23:10.376Z,5.22
2022-09-06T11:25:59.889Z,5.35
2022-09-06T11:28:32.866Z,5.63
2022-09-06T11:31:01.184Z,5.28
2022-09-06T11:33:30.596Z,5.00
2022-09-06T11:36:19.516Z,4.90
2022-09-06T11:38:56.303Z,5.25
2022-09-06T11:41:29.862Z,5.00
2022-09-06T11:43:57.710Z,5.05
2022-09-06T11:47:00.353Z,4.90
2022-09-06T11:49:41.359Z,5.20
2022-09-06T11:52:59.283Z,4.95
2022-09-06T11:55:35.940Z,4.72
2022-09-06T11:58:05.980Z,4.68
2022-09-06T12:00:33.898Z,4.72
2022-09-06T12:06:15.071Z,5.10
2022-09-06T12:08:43.620Z,4.80
2022-09-06T12:11:30.357Z,4.75
2022-09-06T12:14:03.087Z,4.88
2022-09-06T12:17:08.909Z,4.60
2022-09-06T12:19:44.375Z,4.30
2022-09-06T12:22:53.514Z,4.90
2022-09-06T12:25:53.227Z,4.70
2022-09-06T12:28:34.672Z,4.85
2022-09-06T12:31:03.418Z,5.10
2022-09-06T12:33:32.953Z,5.03
2022-09-06T12:36:14.552Z,4.90
2022-09-06T12:38:55.184Z,5.03
2022-09-06T12:41:24.136Z,4.80
2022-09-06T12:43:55.792Z,4.55
2022-09-06T12:46:25.086Z,4.72
2022-09-06T12:49:08.028Z,4.80
2022-09-06T12:51:36.331Z,4.80
2022-09-06T12:54:05.671Z,4.70
2022-09-06T12:56:35.284Z,5.05
2022-09-06T12:59:19.268Z,4.53
2022-09-06T13:01:52.308Z,4.80
2022-09-06T13:04:27.450Z,4.80
2022-09-06T13:06:55.639Z,4.97
2022-09-06T13:09:26.934Z,5.03
2022-09-06T13:11:57.859Z,4.85
2022-09-06T13:14:29.337Z,5.10
2022-09-06T13:16:57.968Z,5.03
2022-09-06T13:19:33.785Z,5.22
2022-09-06T13:22:03.996Z,5.20
2022-09-06T13:24:46.831Z,4.95
2022-09-06T13:27:25.827Z,5.43
2022-09-06T13:29:59.440Z,5.55
2022-09-06T13:32:28.793Z,5.18
2022-09-06T13:34:58.671Z,5.20
2022-09-06T13:37:28.394Z,4.95
2022-09-06T13:39:57.580Z,4.70
2022-09-06T13:42:28.417Z,4.78
2022-09-06T13:45:01.920Z,5.00
2022-09-06T13:47:30.380Z,4.90
2022-09-06T13:49:58.097Z,4.63
2022-09-06T13:52:25.943Z,4.47
2022-09-06T13:54:53.944Z,4.55
2022-09-06T13:57:24.470Z,4.70
2022-09-06T13:59:52.561Z,4.72
2022-09-06T14:02:21.750Z,4.80
2022-09-06T14:04:49.665Z,5.03
2022-09-06T14:07:17.724Z,4.80
2022-09-06T14:09:45.876Z,4.70
2022-09-06T14:12:13.812Z,4.55
2022-09-06T14:14:41.861Z,4.40
2022-09-06T14:17:09.808Z,4.70
2022-09-06T14:19:41.658Z,4.90
2022-09-06T14:22:09.389Z,4.40
2022-09-06T14:24:37.094Z,4.72
2022-09-06T14:27:07.541Z,4.70
2022-09-06T14:29:35.663Z,4.90
2022-09-06T14:32:04.029Z,4.60
2022-09-06T14:34:32.652Z,4.60
2022-09-06T14:37:01.756Z,4.97
2022-09-06T14:39:29.820Z,4.60
2022-09-06T14:41:57.723Z,4.57
2022-09-06T14:44:25.952Z,4.50
2022-09-06T14:46:54.673Z,4.20
2022-09-06T14:49:22.424Z,4.60
2022-09-06T14:51:50.239Z,4.70
2022-09-06T14:54:24.171Z,4.90
2022-09-06T14:56:55.070Z,4.78
2022-09-06T14:59:22.908Z,4.50
2022-09-06T15:01:50.683Z,4.70
2022-09-06T15:04:19.026Z,4.60
2022-09-06T15:06:47.948Z,4.55
2022-09-06T15:09:16.372Z,4.50
2022-09-06T15:11:48.287Z,4.60
2022-09-06T15:14:18.753Z,4.40
2022-09-06T15:16:48.968Z,4.40
2022-09-06T15:19:20.767Z,4.40
2022-09-06T15:21:48.823Z,4.60
2022-09-06T15:24:16.969Z,4.35
2022-09-06T15:26:46.067Z,4.22
2022-09-06T15:29:15.235Z,4.50
2022-09-06T15:31:43.729Z,4.40
2022-09-06T15:34:12.391Z,4.60
2022-09-06T15:36:40.180Z,4.50
2022-09-06T15:39:07.900Z,4.30
2022-09-06T15:41:37.325Z,4.60
2022-09-06T15:44:09.481Z,4.60
2022-09-06T15:46:46.273Z,4.35
2022-09-06T15:49:18.157Z,4.63
2022-09-06T15:51:47.129Z,4.88
2022-09-06T15:54:17.578Z,4.72
2022-09-06T15:56:44.729Z,4.95
2022-09-06T15:59:14.517Z,4.53
2022-09-06T16:01:42.733Z,4.75
2022-09-06T16:04:11.131Z,4.45
2022-09-06T16:06:42.753Z,4.47
2022-09-06T16:09:14.381Z,4.63
2022-09-06T16:11:43.533Z,5.13
2022-09-06T16:14:17.780Z,5.03
2022-09-06T16:16:51.305Z,4.80
2022-09-06T16:19:20.127Z,4.70
2022-09-06T16:22:00.724Z,5.32
2022-09-06T16:24:31.076Z,5.50
2022-09-06T16:26:59.367Z,5.72
2022-09-06T16:29:28.766Z,5.85
2022-09-06T16:32:00.588Z,5.80
2022-09-06T16:34:28.682Z,5.78
2022-09-06T16:36:57.238Z,5.90
2022-09-06T16:39:25.130Z,6.30
2022-09-06T16:41:53.067Z,6.25
2022-09-06T16:44:20.907Z,6.25
2022-09-06T16:46:50.877Z,6.40
2022-09-06T16:49:19.573Z,6.40
2022-09-06T16:51:48.353Z,5.97
2022-09-06T16:54:16.583Z,6.22
2022-09-06T16:56:44.829Z,6.70
2022-09-06T16:59:15.105Z,6.50
2022-09-06T17:01:43.495Z,7.25
2022-09-06T17:04:13.957Z,7.35
2022-09-06T17:06:44.576Z,8.07
2022-09-06T17:09:14.126Z,9.13
2022-09-06T17:11:42.899Z,10.07
2022-09-06T17:14:10.790Z,8.88
2022-09-06T17:16:56.607Z,8.88
2022-09-06T17:19:26.950Z,9.10
2022-09-06T17:21:55.079Z,8.77
2022-09-06T17:24:23.048Z,9.07
2022-09-06T17:26:51.103Z,9.30
2022-09-06T17:29:19.606Z,9.90
2022-09-06T17:31:48.171Z,9.93
2022-09-06T17:34:16.667Z,9.85
2022-09-06T17:36:46.127Z,8.65
2022-09-06T17:39:15.737Z,8.88
2022-09-06T17:41:45.774Z,8.43
2022-09-06T17:44:16.002Z,8.38
2022-09-06T17:47:02.793Z,8.48
2022-09-06T17:49:32.084Z,7.65
2022-09-06T17:52:01.357Z,8.25
2022-09-06T17:54:29.804Z,8.00
2022-09-06T17:56:57.886Z,7.38
2022-09-06T17:59:25.832Z,7.63
2022-09-06T18:01:53.716Z,6.88
2022-09-06T18:04:21.631Z,7.32
2022-09-06T18:06:49.804Z,6.75
2022-09-06T18:09:19.127Z,6.60
2022-09-06T18:11:47.407Z,6.63
2022-09-06T18:14:29.205Z,6.75
2022-09-06T18:16:57.137Z,5.80
2022-09-06T18:19:26.242Z,6.47
2022-09-06T18:21:55.177Z,6.00
2022-09-06T18:24:24.664Z,5.95
2022-09-06T18:26:52.825Z,5.97
2022-09-06T18:29:20.929Z,5.45
2022-09-06T18:31:49.096Z,5.50
2022-09-06T18:34:17.067Z,5.13
2022-09-06T18:36:45.539Z,5.00
2022-09-06T18:39:13.691Z,4.72
2022-09-06T18:42:01.919Z,4.78
2022-09-06T18:44:32.615Z,4.85
2022-09-06T18:47:02.768Z,4.07
2022-09-06T18:49:31.186Z,4.70
2022-09-06T18:51:59.342Z,4.65
2022-09-06T18:54:27.799Z,4.63
2022-09-06T18:56:57.223Z,4.60
2022-09-06T18:59:25.428Z,4.47
2022-09-06T19:01:55.015Z,4.28
2022-09-06T19:04:23.744Z,4.35
2022-09-06T19:06:52.158Z,4.60
2022-09-06T19:09:21.351Z,4.53
2022-09-06T19:11:52.718Z,4.57
2022-09-06T19:14:22.373Z,4.85
2022-09-06T19:16:51.981Z,4.22
2022-09-06T19:19:21.595Z,4.55
2022-09-06T19:21:49.958Z,4.68
2022-09-06T19:24:22.791Z,4.15
2022-09-06T19:26:53.286Z,4.15
2022-09-06T19:29:22.990Z,4.70
2022-09-06T19:31:52.405Z,4.70
2022-09-06T19:34:20.668Z,4.90
2022-09-06T19:36:50.242Z,4.25
2022-09-06T19:39:19.105Z,4.60
2022-09-06T19:41:48.198Z,4.88
2022-09-06T19:44:20.866Z,4.60
2022-09-06T19:46:52.214Z,4.80
2022-09-06T19:49:20.942Z,4.80
2022-09-06T19:51:51.542Z,4.90
2022-09-06T19:54:19.821Z,4.90
2022-09-06T19:56:51.345Z,3.88
2022-09-06T19:59:23.964Z,4.25
2022-09-06T20:02:11.040Z,4.60
2022-09-06T20:04:43.767Z,4.75
2022-09-06T20:07:12.319Z,4.63
2022-09-06T20:09:40.394Z,3.92
2022-09-06T20:12:09.552Z,4.60
2022-09-06T20:14:37.899Z,4.60
2022-09-06T20:17:32.314Z,4.72
2022-09-06T20:19:56.703Z,4.65
2022-09-06T20:22:25.266Z,4.80
2022-09-06T20:24:54.961Z,5.10
2022-09-06T20:27:23.665Z,4.88
2022-09-06T20:29:52.691Z,4.78
2022-09-06T20:32:22.899Z,4.47
2022-09-06T20:34:52.847Z,5.03
2022-09-06T20:37:21.127Z,4.70
2022-09-06T20:39:49.017Z,4.90
2022-09-06T20:42:17.136Z,5.22
2022-09-06T20:44:45.367Z,4.97
2022-09-06T20:47:15.592Z,5.10
2022-09-06T20:49:44.988Z,5.05
2022-09-06T20:52:13.036Z,5.32
2022-09-06T20:54:41.160Z,5.28
2022-09-06T20:57:09.257Z,5.47
2022-09-06T20:59:37.339Z,5.65
2022-09-06T21:02:05.740Z,5.88
2022-09-06T21:04:33.647Z,5.72
2022-09-06T21:07:03.454Z,5.72
2022-09-06T21:09:32.273Z,5.13
2022-09-06T21:12:00.227Z,5.63
2022-09-06T21:14:28.362Z,5.50
2022-09-06T21:16:56.317Z,5.35
2022-09-06T21:19:25.440Z,4.75
2022-09-06T21:21:53.562Z,4.85
2022-09-06T21:24:23.601Z,4.47
2022-09-06T21:26:51.801Z,4.85
2022-09-06T21:29:19.578Z,4.43
2022-09-06T21:31:48.743Z,4.32
2022-09-06T21:34:17.412Z,4.60
2022-09-06T21:36:45.604Z,4.68
2022-09-06T21:39:13.929Z,4.13
2022-09-06T21:41:43.998Z,4.18
2022-09-06T21:44:12.292Z,4.30
2022-09-06T21:46:41.222Z,4.35
2022-09-06T21:49:10.955Z,4.18
2022-09-06T21:51:39.735Z,4.13
2022-09-06T21:54:07.828Z,4.55
2022-09-06T21:56:36.908Z,4.43
2022-09-06T21:59:06.747Z,3.67
2022-09-06T22:01:36.161Z,4.07
2022-09-06T22:04:06.020Z,4.07
2022-09-06T22:06:35.593Z,4.45
2022-09-06T22:09:06.002Z,3.97
2022-09-06T22:11:35.228Z,3.78
2022-09-06T22:14:07.321Z,4.20
2022-09-06T22:19:06.221Z,3.40
2022-09-06T22:21:34.910Z,3.95
2022-09-06T22:24:04.903Z,3.72
2022-09-06T22:26:34.891Z,3.60
2022-09-06T22:29:04.385Z,3.95
2022-09-06T22:31:33.661Z,3.90
2022-09-06T22:34:03.393Z,3.88
2022-09-06T22:36:31.436Z,4.05
2022-09-06T22:39:00.039Z,3.75
2022-09-06T22:41:29.348Z,3.47
2022-09-06T22:43:57.606Z,3.58
2022-09-06T22:46:25.861Z,3.75
2022-09-06T22:48:54.165Z,3.80
2022-09-06T22:51:23.755Z,3.63
2022-09-06T22:53:51.683Z,3.60
2022-09-06T22:56:19.770Z,3.80
2022-09-06T22:58:47.828Z,3.90
2022-09-06T23:01:18.093Z,3.88
2022-09-06T23:03:46.878Z,3.78
2022-09-06T23:06:15.111Z,3.83
2022-09-06T23:08:44.515Z,3.83
2022-09-06T23:11:14.406Z,3.90
2022-09-06T23:13:43.676Z,3.92
2022-09-06T23:16:15.407Z,3.80
2022-09-06T23:18:43.383Z,3.60
2022-09-06T23:21:13.538Z,3.70
2022-09-06T23:23:44.433Z,4.07
2022-09-06T23:26:14.936Z,3.90
2022-09-06T23:28:43.604Z,4.10
2022-09-06T23:31:12.911Z,3.65
2022-09-06T23:33:41.763Z,4.05
2022-09-06T23:36:14.581Z,3.85
2022-09-06T23:38:44.679Z,3.83
2022-09-06T23:41:13.366Z,4.20
2022-09-06T23:43:42.741Z,3.50
2022-09-06T23:46:11.715Z,4.13
2022-09-06T23:48:39.960Z,3.70
2022-09-06T23:51:08.238Z,3.95
2022-09-06T23:53:36.438Z,4.03
2022-09-06T23:56:06.878Z,3.65
2022-09-06T23:58:34.987Z,3.80
